Terminal Aerodrome Forecast
Issued by NWS Grand Forks, ND

Home | Current Version | Previous Version | Text Only | Print | Product List | Glossary Off
Versions: 1 2 3 4 5 6 7 8 9 10 11 12 13 14 15 16 17 18

000
FTUS43 KFGF 200520
TAFGFK
TAF
KGFK 200520Z 2006/2106 30008KT P6SM BKN150 BKN200
     FM210200 31011G19KT P6SM BKN080
     FM210500 34012KT P6SM SCT080=

USA.gov is the U.S. government's official web portal to all federal, state and local government web resources and services.